Time;durP1;ratioP1;P1;durP2;ratioP2;P2;SDS_P1;SDS_P2;PMS_P1;PMS_P2;Temp;Humidity;BMP_temperature;BMP_pressure;BME280_temperature;BME280_humidity;BME280_pressure;Samples;Min_cycle;Max_cycle;Signal;HPM_P1;HPM_P2
2022/04/18 00:01:44;;;;;;;13.52;8.82;;;16.90;67.00;;;;;;5074672;28;20040;-64
2022/04/18 00:04:09;;;;;;;12.88;8.68;;;17.10;67.10;;;;;;5054149;28;20102;-65
2022/04/18 00:06:36;;;;;;;15.35;9.38;;;17.20;64.40;;;;;;5067833;28;20080;-64
2022/04/18 00:09:05;;;;;;;12.35;9.07;;;16.80;64.20;;;;;;5055502;28;20123;-65
2022/04/18 00:11:31;;;;;;;12.07;8.23;;;16.90;64.30;;;;;;5060210;28;20372;-64
2022/04/18 00:13:57;;;;;;;14.48;9.43;;;17.00;67.10;;;;;;5055529;28;20052;-65
2022/04/18 00:16:23;;;;;;;13.02;9.05;;;17.00;67.30;;;;;;5058692;28;20049;-65
2022/04/18 00:18:48;;;;;;;15.75;9.43;;;17.00;67.20;;;;;;5086938;28;20052;-65
2022/04/18 00:21:14;;;;;;;14.68;8.35;;;17.00;67.20;;;;;;5086453;28;20048;-64
2022/04/18 00:23:40;;;;;;;12.75;9.20;;;17.00;67.60;;;;;;5079046;28;20041;-65
2022/04/18 00:26:06;;;;;;;12.68;8.90;;;17.10;67.20;;;;;;5048412;28;20052;-65
2022/04/18 00:28:31;;;;;;;13.93;9.38;;;16.90;64.50;;;;;;5034195;28;20119;-66
2022/04/18 00:31:00;;;;;;;15.93;9.50;;;17.10;67.60;;;;;;5069673;28;20048;-65
2022/04/18 00:33:25;;;;;;;13.48;9.00;;;17.00;67.20;;;;;;5073232;28;20040;-65
2022/04/18 00:35:52;;;;;;;12.63;8.93;;;16.80;67.10;;;;;;5066499;28;20047;-66
2022/04/18 00:38:18;;;;;;;13.15;8.90;;;;;;;;;;5054179;28;20041;-66
2022/04/18 00:40:44;;;;;;;13.65;9.48;;;17.00;67.60;;;;;;5073133;28;20238;-64
2022/04/18 00:43:09;;;;;;;12.60;8.88;;;17.20;67.50;;;;;;5073689;28;20169;-65
2022/04/18 00:45:35;;;;;;;13.00;8.95;;;17.00;64.60;;;;;;5059010;28;20052;-64
2022/04/18 00:48:01;;;;;;;11.73;8.63;;;16.90;64.50;;;;;;5054500;28;20036;-65
2022/04/18 00:50:27;;;;;;;14.27;9.20;;;17.20;67.50;;;;;;5053805;28;20525;-64
2022/04/18 00:52:54;;;;;;;14.13;9.25;;;16.90;64.60;;;;;;5065523;28;20044;-64
2022/04/18 00:55:19;;;;;;;14.13;8.85;;;17.10;67.50;;;;;;5065957;28;20402;-64
2022/04/18 00:57:45;;;;;;;13.38;9.23;;;16.90;67.70;;;;;;5078223;28;20052;-64
2022/04/18 01:00:11;;;;;;;12.85;9.63;;;17.20;67.50;;;;;;5052202;28;20103;-65
2022/04/18 01:02:37;;;;;;;14.88;9.00;;;17.10;67.40;;;;;;5051987;28;20060;-63
2022/04/18 01:05:03;;;;;;;13.75;9.15;;;17.00;64.60;;;;;;5064178;28;20139;-62
2022/04/18 01:07:29;;;;;;;16.55;9.52;;;17.30;67.60;;;;;;5048614;28;20055;-63
2022/04/18 01:09:55;;;;;;;15.63;10.18;;;17.10;67.80;;;;;;5054759;28;20098;-62
2022/04/18 01:12:21;;;;;;;12.43;8.63;;;16.90;67.50;;;;;;5054517;28;20482;-65
2022/04/18 01:14:47;;;;;;;13.05;9.10;;;17.00;67.60;;;;;;5073477;28;20409;-64
2022/04/18 01:17:14;;;;;;;15.38;9.48;;;17.00;67.60;;;;;;5066829;28;20052;-65
2022/04/18 01:19:40;;;;;;;13.10;8.85;;;17.00;64.80;;;;;;5056695;28;20061;-62
2022/04/18 01:22:05;;;;;;;14.27;9.77;;;16.90;67.80;;;;;;5055831;28;20524;-63
2022/04/18 01:30:00;;;;;;;15.07;9.52;;;16.80;67.60;;;;;;5069994;28;20117;-63
2022/04/18 01:32:26;;;;;;;15.32;10.20;;;16.80;67.60;;;;;;5061620;28;20045;-63
2022/04/18 01:34:52;;;;;;;13.82;9.70;;;16.80;67.70;;;;;;5069517;28;20513;-64
2022/04/18 01:37:17;;;;;;;14.15;9.25;;;16.90;67.70;;;;;;5061467;28;20474;-62
2022/04/18 01:39:43;;;;;;;14.18;9.55;;;16.90;66.80;;;;;;5071998;28;20047;-64
2022/04/18 01:42:09;;;;;;;16.35;10.05;;;;;;;;;;5056986;28;20155;-64
2022/04/18 01:44:35;;;;;;;15.07;9.50;;;16.40;64.90;;;;;;5070823;28;20383;-64
2022/04/18 01:47:01;;;;;;;14.48;9.20;;;16.90;65.20;;;;;;5077269;28;20047;-65
2022/04/18 01:49:26;;;;;;;15.25;10.23;;;16.80;68.00;;;;;;5064514;28;20124;-64
2022/04/18 01:51:52;;;;;;;12.98;8.80;;;;;;;;;;5057707;28;20049;-63
2022/04/18 01:54:18;;;;;;;15.23;9.52;;;17.00;68.00;;;;;;5070235;28;20107;-65
2022/04/18 01:56:44;;;;;;;13.30;9.38;;;16.90;65.30;;;;;;5075634;28;20570;-64
2022/04/18 01:59:10;;;;;;;13.57;9.70;;;16.90;68.10;;;;;;5070950;28;20041;-64
2022/04/18 02:01:36;;;;;;;14.60;9.45;;;16.70;68.10;;;;;;5056954;28;20051;-65
2022/04/18 02:04:02;;;;;;;14.05;9.82;;;;;;;;;;5056655;28;20397;-63
2022/04/18 02:06:29;;;;;;;14.75;9.85;;;;;;;;;;5097653;28;20048;-63
2022/04/18 02:08:54;;;;;;;15.13;9.90;;;16.50;68.00;;;;;;5059078;28;20044;-64
2022/04/18 02:11:20;;;;;;;14.77;9.52;;;16.60;68.40;;;;;;5075286;28;20046;-65
2022/04/18 02:13:46;;;;;;;13.73;9.55;;;;;;;;;;5074758;28;20110;-62
2022/04/18 02:16:12;;;;;;;14.25;10.05;;;16.80;68.40;;;;;;5074817;28;20125;-64
2022/04/18 02:18:37;;;;;;;14.77;9.63;;;16.60;65.60;;;;;;5075559;28;20139;-64
2022/04/18 02:21:03;;;;;;;15.35;10.05;;;16.30;68.30;;;;;;5064869;28;20037;-64
2022/04/18 02:23:29;;;;;;;16.38;10.00;;;16.70;65.80;;;;;;5055123;28;20033;-65
2022/04/18 02:25:55;;;;;;;16.58;10.32;;;16.50;68.30;;;;;;5059858;28;20048;-65
2022/04/18 02:28:21;;;;;;;18.70;10.80;;;16.70;68.60;;;;;;5054927;28;20538;-65
2022/04/18 02:30:47;;;;;;;15.35;9.57;;;16.60;68.40;;;;;;5060008;28;20040;-64
2022/04/18 02:33:13;;;;;;;14.35;10.00;;;16.60;68.50;;;;;;5069608;28;20185;-65
2022/04/18 02:35:39;;;;;;;14.63;9.55;;;16.60;65.80;;;;;;5076399;28;20044;-64
2022/04/18 02:38:04;;;;;;;16.30;9.98;;;16.60;68.40;;;;;;5056891;28;20055;-63
2022/04/18 02:40:30;;;;;;;14.32;9.88;;;16.40;65.70;;;;;;5064270;28;20125;-64
2022/04/18 02:42:56;;;;;;;15.52;10.32;;;16.50;68.50;;;;;;5059676;28;20044;-66
2022/04/18 02:45:21;;;;;;;16.70;10.68;;;16.50;68.70;;;;;;5075083;28;20448;-65
2022/04/18 02:47:47;;;;;;;15.38;9.63;;;16.60;66.00;;;;;;5076198;28;20452;-64
2022/04/18 02:50:13;;;;;;;14.23;9.90;;;16.40;68.60;;;;;;5058033;28;20102;-63
2022/04/18 02:52:39;;;;;;;17.13;9.80;;;16.30;66.00;;;;;;5072263;28;20044;-65
2022/04/18 02:55:05;;;;;;;14.50;9.90;;;16.50;68.70;;;;;;5059333;28;20048;-64
2022/04/18 02:57:31;;;;;;;15.00;10.38;;;16.50;68.80;;;;;;5059004;28;20040;-65
2022/04/18 02:59:57;;;;;;;14.85;10.43;;;;;;;;;;5074676;28;20037;-65
2022/04/18 03:02:23;;;;;;;17.52;11.02;;;;;;;;;;5069307;28;20124;-61
2022/04/18 03:04:49;;;;;;;14.85;9.63;;;16.50;68.30;;;;;;5060489;28;20036;-63
2022/04/18 03:07:15;;;;;;;14.55;10.60;;;16.20;68.90;;;;;;5058451;28;20041;-63
2022/04/18 03:09:40;;;;;;;18.10;10.40;;;16.20;68.90;;;;;;5059863;28;20072;-63
2022/04/18 03:12:07;;;;;;;15.60;9.95;;;16.00;68.80;;;;;;5108683;28;20055;-64
2022/04/18 03:14:33;;;;;;;13.70;9.63;;;16.20;64.60;;;;;;5047655;28;20040;-64
2022/04/18 03:16:58;;;;;;;15.18;10.15;;;16.30;68.90;;;;;;5064069;28;20398;-63
2022/04/18 03:19:24;;;;;;;15.23;10.07;;;16.30;66.20;;;;;;5073700;28;20048;-64
2022/04/18 03:21:51;;;;;;;14.65;9.55;;;16.10;68.90;;;;;;5075499;28;20049;-64
2022/04/18 03:24:16;;;;;;;14.95;10.55;;;16.30;69.10;;;;;;5058392;28;20041;-63
2022/04/18 03:26:42;;;;;;;15.20;10.25;;;16.10;66.20;;;;;;5075055;28;20047;-63
2022/04/18 03:29:08;;;;;;;15.98;10.95;;;16.10;69.10;;;;;;5107721;28;20048;-63
2022/04/18 03:31:34;;;;;;;15.30;9.90;;;16.20;69.30;;;;;;5102144;28;20056;-62
2022/04/18 03:33:59;;;;;;;15.35;10.10;;;16.20;69.00;;;;;;5070696;28;20402;-63
2022/04/18 03:41:53;;;;;;;16.80;10.30;;;16.40;66.60;;;;;;5073924;28;20056;-65
2022/04/18 03:44:19;;;;;;;16.90;11.07;;;16.20;68.70;;;;;;5072853;28;20055;-64
2022/04/18 03:46:45;;;;;;;15.60;9.95;;;16.20;66.50;;;;;;5055496;28;20052;-64
2022/04/18 03:49:10;;;;;;;16.27;10.55;;;15.90;69.00;;;;;;5054642;28;20041;-65
2022/04/18 03:51:36;;;;;;;15.38;10.25;;;16.30;69.20;;;;;;5059297;28;20045;-65
2022/04/18 03:54:02;;;;;;;16.05;10.32;;;16.50;69.30;;;;;;5072777;28;20052;-65
2022/04/18 03:56:27;;;;;;;15.60;10.13;;;16.20;69.00;;;;;;5062294;28;20506;-65
2022/04/18 03:58:53;;;;;;;15.52;9.77;;;16.10;66.40;;;;;;5087219;28;20471;-66
2022/04/18 04:01:19;;;;;;;14.48;9.65;;;;;;;;;;5054380;28;20060;-63
2022/04/18 04:03:45;;;;;;;15.63;10.40;;;16.30;69.30;;;;;;5054228;28;20045;-64
2022/04/18 04:06:11;;;;;;;17.85;10.90;;;16.30;69.30;;;;;;5058011;28;20051;-65
2022/04/18 04:08:37;;;;;;;14.43;10.10;;;16.60;69.40;;;;;;5061109;28;20120;-65
2022/04/18 04:11:02;;;;;;;14.35;10.02;;;16.50;69.20;;;;;;5072350;28;20053;-64
2022/04/18 04:13:28;;;;;;;15.60;9.75;;;16.30;67.20;;;;;;5074463;28;20500;-65
2022/04/18 04:15:54;;;;;;;14.70;9.82;;;16.30;66.40;;;;;;5073312;28;20051;-64
2022/04/18 04:18:19;;;;;;;14.90;10.27;;;16.00;69.20;;;;;;5056105;28;20052;-64
2022/04/18 04:20:45;;;;;;;15.65;10.50;;;16.50;69.20;;;;;;5058954;28;20048;-64
2022/04/18 04:23:11;;;;;;;14.30;10.02;;;16.40;69.10;;;;;;5074577;28;20123;-64
2022/04/18 04:25:37;;;;;;;14.63;9.57;;;16.50;69.40;;;;;;5060812;28;20045;-65
2022/04/18 04:28:03;;;;;;;21.15;10.27;;;16.20;69.00;;;;;;5059409;28;20044;-64
2022/04/18 04:30:28;;;;;;;15.70;10.32;;;16.40;66.50;;;;;;5105607;28;20044;-65
2022/04/18 04:32:54;;;;;;;15.52;10.60;;;16.40;69.20;;;;;;5054223;28;20093;-65
2022/04/18 04:35:20;;;;;;;17.02;10.52;;;16.40;69.30;;;;;;5054171;28;20145;-66
2022/04/18 04:37:45;;;;;;;16.83;10.68;;;16.20;69.10;;;;;;5055536;28;20053;-66
2022/04/18 04:40:11;;;;;;;17.00;10.18;;;16.50;69.50;;;;;;5054445;28;20044;-64
2022/04/18 04:42:38;;;;;;;14.73;10.57;;;;;;;;;;5054170;28;20135;-64
2022/04/18 04:45:04;;;;;;;14.45;10.45;;;16.50;69.20;;;;;;5073595;28;20044;-65
2022/04/18 04:47:30;;;;;;;14.60;10.07;;;16.40;69.40;;;;;;5054077;28;20139;-65
2022/04/18 04:49:56;;;;;;;16.35;9.98;;;16.60;66.90;;;;;;5055601;28;20120;-65
2022/04/18 04:52:22;;;;;;;15.73;10.23;;;16.30;69.00;;;;;;5053596;28;20049;-64
2022/04/18 04:54:49;;;;;;;14.55;10.43;;;16.50;69.10;;;;;;5048715;28;20044;-64
2022/04/18 04:57:15;;;;;;;15.38;10.55;;;16.50;69.00;;;;;;5052127;28;20122;-64
2022/04/18 04:59:40;;;;;;;16.30;10.77;;;16.60;66.20;;;;;;5093062;28;20513;-65
2022/04/18 05:02:07;;;;;;;17.75;11.45;;;;;;;;;;5073581;28;20094;-63
2022/04/18 05:04:32;;;;;;;16.45;11.20;;;16.70;68.90;;;;;;5072093;28;20101;-65
2022/04/18 05:06:58;;;;;;;16.73;11.52;;;16.80;68.70;;;;;;5054796;28;20053;-63
2022/04/18 05:09:24;;;;;;;14.55;10.35;;;16.80;68.30;;;;;;5069572;28;20073;-64
2022/04/18 05:11:49;;;;;;;16.90;10.45;;;16.80;69.00;;;;;;5052085;28;20051;-64
2022/04/18 05:14:15;;;;;;;15.27;10.50;;;16.80;68.60;;;;;;5035828;28;20087;-64
2022/04/18 05:16:42;;;;;;;15.73;10.57;;;16.90;68.50;;;;;;5053618;28;20061;-64
2022/04/18 05:19:07;;;;;;;17.35;11.27;;;17.10;68.50;;;;;;5086867;28;20037;-64
2022/04/18 05:21:33;;;;;;;17.67;10.70;;;17.20;68.50;;;;;;5050710;28;20551;-64
2022/04/18 05:23:59;;;;;;;15.13;11.10;;;17.00;68.30;;;;;;5072337;28;20041;-64
2022/04/18 05:26:24;;;;;;;14.75;10.82;;;17.10;65.40;;;;;;5072275;28;20414;-65
2022/04/18 05:28:50;;;;;;;15.60;10.70;;;17.30;68.20;;;;;;5055367;28;20051;-65
2022/04/18 05:31:19;;;;;;;15.05;10.63;;;17.30;65.40;;;;;;5056440;28;20572;-65
2022/04/18 05:33:45;;;;;;;15.38;10.57;;;17.70;68.30;;;;;;5059066;28;20513;-64
2022/04/18 05:36:11;;;;;;;22.02;11.50;;;17.70;68.30;;;;;;5043974;28;20041;-65
2022/04/18 05:38:37;;;;;;;17.27;10.60;;;17.60;65.20;;;;;;5052077;28;20041;-64
2022/04/18 05:41:02;;;;;;;18.33;10.35;;;17.90;68.00;;;;;;5053022;28;20406;-64
2022/04/18 05:43:29;;;;;;;14.43;10.20;;;17.90;65.10;;;;;;5053013;28;20437;-64
2022/04/18 05:45:55;;;;;;;13.68;9.90;;;;;;;;;;5051619;28;20513;-66
2022/04/18 05:48:21;;;;;;;16.08;10.32;;;18.10;64.20;;;;;;5051910;28;20045;-64
2022/04/18 05:50:47;;;;;;;19.52;11.07;;;;;;;;;;5059195;28;20135;-64
2022/04/18 05:53:13;;;;;;;25.42;10.57;;;18.80;67.70;;;;;;5051999;28;20167;-64
2022/04/18 05:55:39;;;;;;;65.30;13.20;;;18.70;67.40;;;;;;5063543;28;20044;-63
2022/04/18 05:58:05;;;;;;;49.28;13.10;;;18.90;67.40;;;;;;5051666;28;20047;-65
2022/04/18 06:00:34;;;;;;;42.22;12.55;;;18.80;64.30;;;;;;5053393;28;20052;-65
2022/04/18 06:03:01;;;;;;;35.67;11.68;;;18.90;66.90;;;;;;5056704;28;20037;-65
2022/04/18 06:05:27;;;;;;;37.63;12.05;;;18.80;66.70;;;;;;5042136;28;20140;-64
2022/04/18 06:07:52;;;;;;;36.17;12.05;;;19.10;64.00;;;;;;5093742;28;20486;-65
2022/04/18 06:10:19;;;;;;;31.25;11.35;;;19.20;66.70;;;;;;5057359;28;20040;-64
2022/04/18 06:12:45;;;;;;;25.10;11.80;;;19.40;66.70;;;;;;5069916;28;20041;-67
2022/04/18 06:15:10;;;;;;;26.77;10.93;;;19.50;66.70;;;;;;5062142;28;20033;-67
2022/04/18 06:17:36;;;;;;;23.15;10.77;;;19.40;66.40;;;;;;5105148;28;20135;-66
2022/04/18 06:20:03;;;;;;;21.50;10.93;;;19.70;66.50;;;;;;5054905;28;20105;-66
2022/04/18 06:22:29;;;;;;;39.90;12.02;;;19.60;66.30;;;;;;5104611;28;20401;-65
2022/04/18 06:24:55;;;;;;;16.63;9.98;;;19.70;66.40;;;;;;5044240;28;20051;-66
2022/04/18 06:27:20;;;;;;;22.40;11.68;;;20.10;66.40;;;;;;5054894;28;20091;-66
2022/04/18 06:29:47;;;;;;;20.95;10.73;;;19.80;66.10;;;;;;5061156;28;20040;-67
2022/04/18 06:32:13;;;;;;;21.08;10.60;;;19.90;66.20;;;;;;5071279;28;20052;-67
2022/04/18 06:34:39;;;;;;;22.23;10.30;;;19.90;65.10;;;;;;5055936;28;20036;-67
2022/04/18 06:37:05;;;;;;;20.27;10.88;;;20.10;66.10;;;;;;5062250;28;20097;-66
2022/04/18 06:39:31;;;;;;;17.48;9.95;;;20.10;63.60;;;;;;5058218;28;20044;-66
2022/04/18 06:41:57;;;;;;;19.15;10.15;;;20.20;66.00;;;;;;5065121;28;20055;-66
2022/04/18 06:44:24;;;;;;;17.65;10.50;;;20.20;63.20;;;;;;5054733;28;20041;-66
2022/04/18 06:46:49;;;;;;;17.75;10.43;;;20.30;63.30;;;;;;5056539;28;20080;-65
2022/04/18 06:49:15;;;;;;;19.42;9.90;;;20.40;65.90;;;;;;5056170;28;20081;-66
2022/04/18 06:51:41;;;;;;;17.42;10.43;;;20.30;62.90;;;;;;5056139;28;20119;-66
2022/04/18 06:54:07;;;;;;;15.55;9.43;;;20.60;65.70;;;;;;5057497;28;20033;-67
2022/04/18 06:59:17;;;;;;;14.38;9.07;;;20.80;65.60;;;;;;5049586;28;20480;-65
2022/04/18 07:01:43;;;;;;;15.43;9.68;;;20.70;62.80;;;;;;5054466;28;20057;-65
2022/04/18 07:04:09;;;;;;;15.68;9.38;;;20.80;65.50;;;;;;5055351;28;20138;-65
2022/04/18 07:06:35;;;;;;;13.85;9.73;;;20.80;62.60;;;;;;5054871;28;20053;-65
2022/04/18 07:09:01;;;;;;;28.45;10.23;;;20.80;62.70;;;;;;5055489;28;20041;-64
2022/04/18 07:11:27;;;;;;;16.80;9.70;;;20.90;65.30;;;;;;5088150;28;20056;-65
2022/04/18 07:13:52;;;;;;;13.60;9.80;;;21.00;65.30;;;;;;5072358;28;20052;-67
2022/04/18 07:16:18;;;;;;;14.35;9.50;;;21.10;62.40;;;;;;5054544;28;20127;-66
2022/04/18 07:18:44;;;;;;;17.85;9.52;;;20.80;64.90;;;;;;5074140;28;20049;-66
2022/04/18 07:21:10;;;;;;;14.88;9.90;;;;;;;;;;5056924;28;20049;-66
2022/04/18 07:23:36;;;;;;;14.65;9.88;;;20.90;64.90;;;;;;5055451;28;20045;-65
2022/04/18 07:26:02;;;;;;;13.65;9.38;;;21.10;61.90;;;;;;5055642;28;20037;-66
2022/04/18 07:28:27;;;;;;;13.77;8.80;;;21.60;62.50;;;;;;5055907;28;20044;-66
2022/04/18 07:30:55;;;;;;;11.43;8.98;;;21.40;65.00;;;;;;5055643;28;20048;-65
2022/04/18 07:33:21;;;;;;;12.05;8.95;;;21.40;60.90;;;;;;5066357;28;20041;-65
2022/04/18 07:35:47;;;;;;;14.55;9.63;;;21.40;64.80;;;;;;5037511;28;20101;-66
2022/04/18 07:40:56;;;;;;;13.75;8.80;;;21.70;64.90;;;;;;5074063;28;20079;-67
2022/04/18 07:43:22;;;;;;;13.40;8.93;;;21.60;64.70;;;;;;5073916;28;20438;-66
2022/04/18 07:45:48;;;;;;;13.98;8.73;;;21.70;62.40;;;;;;5054159;28;20448;-66
2022/04/18 07:48:14;;;;;;;12.65;8.45;;;21.80;64.70;;;;;;5054963;28;20049;-67
2022/04/18 07:53:24;;;;;;;13.27;8.93;;;21.80;64.10;;;;;;5073962;28;20456;-67
2022/04/18 07:55:50;;;;;;;11.63;8.48;;;21.70;64.20;;;;;;5073336;28;20041;-68
2022/04/18 07:58:15;;;;;;;11.63;8.77;;;21.80;64.50;;;;;;5061819;28;20053;-66
2022/04/18 08:00:41;;;;;;;12.30;8.43;;;21.90;64.50;;;;;;5054808;28;20037;-65
2022/04/18 08:03:07;;;;;;;12.10;8.18;;;22.00;64.60;;;;;;5054475;28;20470;-67
2022/04/18 08:05:33;;;;;;;11.50;8.30;;;22.10;61.70;;;;;;5070329;28;20503;-65
2022/04/18 08:07:58;;;;;;;11.63;8.05;;;22.20;64.60;;;;;;5052570;28;20052;-65
2022/04/18 08:10:24;;;;;;;12.52;7.95;;;22.00;61.50;;;;;;5054006;28;20079;-66
2022/04/18 08:12:50;;;;;;;13.52;8.07;;;22.00;64.60;;;;;;5054425;28;20056;-66
2022/04/18 08:15:16;;;;;;;10.82;7.90;;;22.10;64.10;;;;;;5064022;28;20056;-66
2022/04/18 08:17:41;;;;;;;11.52;7.97;;;21.80;64.40;;;;;;5054086;28;20136;-66
2022/04/18 08:20:07;;;;;;;10.90;7.55;;;22.00;64.80;;;;;;5055517;28;20080;-65
2022/04/18 08:22:33;;;;;;;9.82;7.22;;;22.20;64.40;;;;;;5054601;28;20044;-66
2022/04/18 08:24:59;;;;;;;13.85;7.70;;;22.30;64.20;;;;;;5052503;28;20040;-66
2022/04/18 08:27:25;;;;;;;12.18;7.68;;;22.40;61.50;;;;;;5052602;28;20049;-64
2022/04/18 08:29:50;;;;;;;13.35;7.90;;;22.00;63.90;;;;;;5053943;28;20056;-65
2022/04/18 08:32:16;;;;;;;11.95;7.22;;;22.30;61.30;;;;;;5053722;28;20045;-64
2022/04/18 08:34:42;;;;;;;10.15;7.38;;;22.40;64.10;;;;;;5054093;28;20045;-66
2022/04/18 08:37:08;;;;;;;10.52;7.47;;;22.10;63.80;;;;;;5052952;28;20041;-65
2022/04/18 08:39:33;;;;;;;11.63;7.13;;;22.20;63.70;;;;;;5053471;28;20048;-65
2022/04/18 08:41:59;;;;;;;10.60;7.05;;;22.20;63.90;;;;;;5067668;28;20055;-65
2022/04/18 08:44:26;;;;;;;10.48;7.65;;;22.00;63.40;;;;;;5052120;28;20056;-65
2022/04/18 08:46:52;;;;;;;11.57;7.63;;;22.10;63.50;;;;;;5053291;28;20470;-66
2022/04/18 08:54:47;;;;;;;11.18;7.53;;;22.60;61.10;;;;;;5038289;28;20132;-64
2022/04/18 08:57:13;;;;;;;10.13;7.15;;;22.10;62.90;;;;;;5056983;28;20123;-65
2022/04/18 08:59:39;;;;;;;12.23;7.68;;;22.40;63.30;;;;;;5073644;28;20052;-68
2022/04/18 09:02:05;;;;;;;12.65;7.80;;;22.30;63.30;;;;;;5062679;28;20098;-69
2022/04/18 09:04:30;;;;;;;9.82;6.82;;;22.10;63.00;;;;;;5052487;28;20036;-70
2022/04/18 09:06:56;;;;;;;9.88;7.13;;;22.10;60.00;;;;;;5052218;28;20131;-69
2022/04/18 09:09:28;;;;;;;10.27;7.53;;;22.20;60.30;;;;;;5068909;28;20036;-71
2022/04/18 09:11:54;;;;;;;13.55;8.13;;;22.10;62.90;;;;;;5053590;28;20056;-69
2022/04/18 09:14:20;;;;;;;10.90;7.20;;;21.60;62.70;;;;;;5053879;28;20048;-69
2022/04/18 09:16:45;;;;;;;12.07;6.70;;;21.90;62.70;;;;;;5053161;28;20491;-66
2022/04/18 09:19:13;;;;;;;10.63;6.95;;;22.00;59.80;;;;;;5019816;28;20045;-65
2022/04/18 09:22:00;;;;;;;9.52;6.60;;;21.90;62.60;;;;;;5035562;28;20055;-65
2022/04/18 09:24:34;;;;;;;8.82;6.50;;;21.80;62.70;;;;;;5054361;28;20045;-64
2022/04/18 09:27:12;;;;;;;8.90;6.95;;;21.60;57.70;;;;;;5053232;28;20055;-64
2022/04/18 09:29:40;;;;;;;8.38;6.40;;;21.70;62.50;;;;;;5053208;28;20465;-65
2022/04/18 09:32:08;;;;;;;11.02;7.20;;;21.40;59.20;;;;;;5063353;28;20047;-65
2022/04/18 09:34:33;;;;;;;10.13;6.32;;;21.80;62.20;;;;;;5042055;28;20057;-64
2022/04/18 09:37:19;;;;;;;9.95;6.93;;;21.70;62.30;;;;;;5052037;28;20402;-64
2022/04/18 09:39:55;;;;;;;10.98;6.75;;;21.80;62.50;;;;;;5035921;28;20410;-65
2022/04/18 09:42:22;;;;;;;9.88;6.00;;;21.80;60.20;;;;;;5035235;28;20053;-63
2022/04/18 09:44:47;;;;;;;10.38;6.93;;;21.60;62.30;;;;;;5062210;28;20062;-64
2022/04/18 09:47:17;;;;;;;9.48;6.40;;;21.50;62.30;;;;;;5072981;28;20180;-70
2022/04/18 09:49:43;;;;;;;9.55;6.45;;;;;;;;;;5057173;28;20041;-71
2022/04/18 09:52:15;;;;;;;9.48;5.95;;;21.60;57.70;;;;;;5051607;28;20546;-70
2022/04/18 09:54:44;;;;;;;8.95;6.18;;;21.60;60.00;;;;;;5055246;28;20033;-69
2022/04/18 09:57:10;;;;;;;10.18;5.95;;;21.60;62.20;;;;;;5053442;28;20553;-70
2022/04/18 09:59:37;;;;;;;9.18;6.22;;;21.50;59.60;;;;;;5055035;28;20053;-69
2022/04/18 10:02:03;;;;;;;9.35;6.55;;;21.80;62.40;;;;;;5055678;28;20080;-70
2022/04/18 10:04:28;;;;;;;9.30;6.88;;;21.70;59.30;;;;;;5056733;28;20067;-70
2022/04/18 10:06:55;;;;;;;11.32;6.30;;;22.00;59.70;;;;;;5058061;28;20045;-70
2022/04/18 10:09:21;;;;;;;12.00;6.78;;;21.90;62.60;;;;;;5055375;28;20048;-70
2022/04/18 10:11:46;;;;;;;13.77;7.13;;;21.60;62.50;;;;;;5056875;28;20041;-70
2022/04/18 10:14:12;;;;;;;9.20;6.35;;;21.80;62.60;;;;;;5059513;28;20610;-70
2022/04/18 10:16:38;;;;;;;10.35;6.55;;;21.60;59.60;;;;;;5061711;28;20057;-67
2022/04/18 10:19:13;;;;;;;10.05;6.93;;;22.00;59.90;;;;;;5055570;28;20079;-69
2022/04/18 10:21:40;;;;;;;10.15;6.70;;;22.00;60.30;;;;;;5039813;28;20478;-71
2022/04/18 10:24:36;;;;;;;11.70;6.97;;;22.00;60.40;;;;;;5074354;28;20072;-69
2022/04/18 10:27:30;;;;;;;13.38;7.38;;;21.80;59.40;;;;;;5063915;28;20052;-65
2022/04/18 10:29:58;;;;;;;13.57;7.03;;;21.90;63.30;;;;;;5056230;28;20088;-69
2022/04/18 10:32:25;;;;;;;10.57;7.25;;;21.80;63.30;;;;;;5056383;28;20375;-66
2022/04/18 10:35:01;;;;;;;11.93;7.13;;;21.90;63.20;;;;;;5054948;28;20483;-69
2022/04/18 10:37:27;;;;;;;10.07;6.78;;;21.80;63.20;;;;;;5056422;28;20037;-70
2022/04/18 10:40:06;;;;;;;10.43;6.35;;;22.00;63.40;;;;;;5065023;28;20402;-68
2022/04/18 10:42:36;;;;;;;10.65;6.63;;;22.00;60.50;;;;;;5076333;28;20441;-70
2022/04/18 10:45:09;;;;;;;11.27;7.53;;;22.00;63.10;;;;;;5076309;28;20047;-70
2022/04/18 10:48:04;;;;;;;10.85;6.28;;;22.10;63.10;;;;;;5059537;28;20041;-66
2022/04/18 10:50:40;;;;;;;10.85;6.55;;;22.00;59.40;;;;;;5056156;28;20056;-68
2022/04/18 10:53:17;;;;;;;8.88;6.25;;;22.00;63.10;;;;;;5057389;28;20474;-69
2022/04/18 10:55:52;;;;;;;10.40;6.53;;;21.90;59.20;;;;;;5064981;28;20044;-70
2022/04/18 10:58:25;;;;;;;11.23;6.72;;;22.10;63.20;;;;;;5057605;28;20068;-63
2022/04/18 11:00:58;;;;;;;9.77;6.45;;;22.00;63.20;;;;;;5054828;28;20052;-64
2022/04/18 11:03:56;;;;;;;9.68;6.15;;;22.10;61.00;;;;;;5055745;28;20405;-63
2022/04/18 11:06:37;;;;;;;11.90;6.40;;;22.10;59.40;;;;;;5054202;28;20049;-63
2022/04/18 11:09:06;;;;;;;9.15;6.57;;;22.10;59.70;;;;;;5056869;28;20047;-64
2022/04/18 11:11:36;;;;;;;9.23;5.90;;;22.10;63.50;;;;;;5053502;28;20529;-63
2022/04/18 11:14:02;;;;;;;9.60;6.25;;;22.00;63.50;;;;;;5065471;28;20425;-64
2022/04/18 11:16:28;;;;;;;12.20;6.35;;;22.20;60.80;;;;;;5075220;28;20140;-64
2022/04/18 11:19:15;;;;;;;13.88;7.30;;;22.00;60.20;;;;;;5068785;28;20415;-62
2022/04/18 11:22:00;;;;;;;10.88;6.00;;;22.20;59.50;;;;;;5055613;28;20049;-64
2022/04/18 11:24:56;;;;;;;9.50;6.38;;;22.00;59.70;;;;;;5053955;28;20052;-64
2022/04/18 11:27:25;;;;;;;10.40;5.60;;;22.20;63.40;;;;;;5055681;28;20417;-64
2022/04/18 11:29:51;;;;;;;9.90;5.72;;;22.30;63.40;;;;;;5056646;28;20052;-64
2022/04/18 11:32:19;;;;;;;9.00;5.60;;;22.10;63.50;;;;;;5073939;28;20068;-62
2022/04/18 11:34:47;;;;;;;11.98;6.15;;;22.20;63.30;;;;;;5074718;28;20418;-63
2022/04/18 11:37:35;;;;;;;9.73;6.07;;;21.90;63.50;;;;;;5074074;28;20048;-63
2022/04/18 11:40:05;;;;;;;10.23;5.68;;;22.40;63.30;;;;;;5068672;28;20105;-64
2022/04/18 11:42:32;;;;;;;8.63;5.72;;;22.10;63.10;;;;;;5053826;28;20120;-66
2022/04/18 11:44:59;;;;;;;9.68;5.68;;;22.10;60.60;;;;;;5070369;28;20045;-65
2022/04/18 11:47:36;;;;;;;9.30;6.13;;;22.20;63.00;;;;;;5058998;28;20083;-64
2022/04/18 11:50:02;;;;;;;10.35;5.63;;;22.20;62.90;;;;;;5056994;28;20390;-65
2022/04/18 11:52:33;;;;;;;11.00;6.05;;;22.40;60.40;;;;;;5054694;28;20525;-63
2022/04/18 11:55:14;;;;;;;9.73;6.72;;;22.30;62.90;;;;;;5037039;28;20049;-64
2022/04/18 11:57:41;;;;;;;9.32;5.97;;;22.10;62.80;;;;;;5053884;28;20037;-65
2022/04/18 12:00:10;;;;;;;8.80;6.22;;;22.30;63.00;;;;;;5054497;28;20056;-63
2022/04/18 12:08:07;;;;;;;9.48;6.97;;;22.20;59.70;;;;;;5073585;28;20098;-63
2022/04/18 12:10:35;;;;;;;11.48;6.78;;;22.30;59.10;;;;;;5073118;28;20087;-64
2022/04/18 12:13:05;;;;;;;9.88;6.30;;;22.00;61.00;;;;;;5060588;28;20045;-73
2022/04/18 12:15:31;;;;;;;9.40;6.53;;;22.00;58.90;;;;;;5064056;28;20047;-73
2022/04/18 12:17:57;;;;;;;16.90;6.70;;;22.00;60.70;;;;;;5053972;28;20061;-71
2022/04/18 12:20:27;;;;;;;9.55;6.50;;;21.90;61.00;;;;;;5054152;28;20159;-71
2022/04/18 12:23:01;;;;;;;9.23;6.68;;;22.00;61.40;;;;;;5053986;28;20057;-65
2022/04/18 12:25:31;;;;;;;8.73;6.05;;;22.00;61.60;;;;;;5053958;28;20049;-65
2022/04/18 12:27:58;;;;;;;9.55;6.00;;;22.00;61.70;;;;;;5036288;28;20475;-65
2022/04/18 12:30:24;;;;;;;8.27;5.88;;;22.00;62.00;;;;;;5053939;28;20098;-65
2022/04/18 12:32:50;;;;;;;8.68;5.38;;;22.20;62.10;;;;;;5054611;28;20041;-66
2022/04/18 12:35:37;;;;;;;7.88;5.40;;;22.10;58.90;;;;;;5055210;28;20049;-65
2022/04/18 12:38:04;;;;;;;8.18;5.90;;;22.30;62.50;;;;;;5056129;28;20052;-65
2022/04/18 12:40:58;;;;;;;8.05;5.25;;;22.20;62.50;;;;;;5072843;28;20445;-65
2022/04/18 12:43:30;;;;;;;;;;;22.20;60.20;;;;;;5071733;28;20071;-66
2022/04/18 12:46:04;;;;;;;7.05;5.00;;;22.30;58.80;;;;;;5072649;28;19993;-65
2022/04/18 12:48:33;;;;;;;8.38;5.50;;;22.40;63.10;;;;;;5074003;28;20429;-65
2022/04/18 12:51:02;;;;;;;9.05;6.07;;;22.20;62.70;;;;;;5062355;28;20052;-65
2022/04/18 12:53:49;;;;;;;7.45;5.40;;;22.40;60.20;;;;;;5053924;28;20041;-65
2022/04/18 12:56:23;;;;;;;8.65;5.20;;;22.60;61.70;;;;;;5057211;28;20041;-65
2022/04/18 12:58:50;;;;;;;8.23;5.85;;;22.30;62.60;;;;;;5053761;28;20063;-65
2022/04/18 13:01:24;;;;;;;8.93;5.75;;;22.30;59.80;;;;;;5052509;28;20053;-65
2022/04/18 13:03:51;;;;;;;7.75;5.53;;;22.30;62.90;;;;;;5085980;28;20048;-66
2022/04/18 13:06:24;;;;;;;6.80;4.82;;;22.60;60.20;;;;;;5080276;28;20052;-65
2022/04/18 13:08:50;;;;;;;;;;;22.60;60.90;;;;;;5053178;28;20053;-65
2022/04/18 13:11:17;;;;;;;8.02;5.50;;;22.30;63.10;;;;;;5068886;28;19921;-65
2022/04/18 13:13:44;;;;;;;7.32;5.05;;;22.30;63.10;;;;;;5088679;28;20045;-65